Time;durP1;ratioP1;P1;durP2;ratioP2;P2;SDS_P1;SDS_P2;PMS_P1;PMS_P2;Temp;Humidity;BMP_temperature;BMP_pressure;BME280_temperature;BME280_humidity;BME280_pressure;Samples;Min_cycle;Max_cycle;Signal;HPM_P1;HPM_P2
2022/05/31 00:00:41;;;;;;;6.47;6.17;;;;;;;10.18;82.42;101505.88;4994789;28;20474;-46
2022/05/31 00:03:12;;;;;;;6.30;6.00;;;;;;;10.16;82.11;101520.38;4995147;28;20442;-45
2022/05/31 00:05:41;;;;;;;7.17;6.77;;;;;;;10.11;81.96;101517.38;4994841;28;20472;-48
2022/05/31 00:08:08;;;;;;;7.40;7.03;;;;;;;10.07;82.97;101518.72;4994477;28;20442;-43
2022/05/31 00:10:36;;;;;;;7.23;6.83;;;;;;;9.99;84.30;101515.09;4994247;28;20440;-44
2022/05/31 00:13:04;;;;;;;7.93;7.13;;;;;;;9.96;84.89;101514.63;4994961;28;20442;-44
2022/05/31 00:15:32;;;;;;;7.20;6.70;;;;;;;9.97;84.75;101513.63;4994717;28;20812;-45
2022/05/31 00:17:59;;;;;;;6.70;6.33;;;;;;;9.95;85.14;101510.28;5013465;28;20473;-45
2022/05/31 00:20:27;;;;;;;7.10;6.70;;;;;;;9.96;85.10;101520.78;5013973;28;20468;-44
2022/05/31 00:22:56;;;;;;;7.27;6.97;;;;;;;9.96;84.89;101517.28;5014343;28;20437;-43
2022/05/31 00:25:24;;;;;;;8.00;7.40;;;;;;;9.92;85.04;101515.97;5013997;28;20931;-47
2022/05/31 00:27:52;;;;;;;7.80;7.40;;;;;;;9.85;85.93;101507.84;5013631;28;20465;-43
2022/05/31 00:30:20;;;;;;;7.13;6.73;;;;;;;9.85;85.88;101507.84;5013903;28;20465;-45
2022/05/31 00:32:50;;;;;;;7.87;7.50;;;;;;;9.88;85.82;101512.84;5013937;28;20441;-45
2022/05/31 00:35:21;;;;;;;7.13;6.83;;;;;;;9.90;85.29;101510.81;5014067;28;20945;-46
2022/05/31 00:37:49;;;;;;;7.50;7.10;;;;;;;9.90;85.01;101509.97;5013686;28;20483;-46
2022/05/31 00:40:21;;;;;;;6.93;6.63;;;;;;;9.93;84.79;101509.63;5013711;28;20473;-44
2022/05/31 00:42:54;;;;;;;7.07;6.77;;;;;;;9.91;84.25;101509.00;5013859;28;20812;-47
2022/05/31 00:45:26;;;;;;;6.70;6.40;;;;;;;9.87;83.66;101503.19;5013483;28;20950;-45
2022/05/31 00:47:54;;;;;;;6.77;6.50;;;;;;;9.84;83.44;101503.53;5013484;28;20475;-45
2022/05/31 00:50:28;;;;;;;7.13;6.83;;;;;;;9.78;82.97;101506.03;5013637;28;20429;-44
2022/05/31 00:52:59;;;;;;;7.57;7.17;;;;;;;9.72;82.89;101502.25;5013676;28;20471;-48
2022/05/31 00:55:32;;;;;;;7.00;6.70;;;;;;;9.66;82.59;101507.41;5013607;28;20444;-46
2022/05/31 00:58:07;;;;;;;7.63;7.03;;;;;;;9.59;82.69;101498.47;5013214;28;20476;-43
2022/05/31 01:00:37;;;;;;;7.07;6.77;;;;;;;9.53;82.50;101499.16;5013385;28;20571;-46
2022/05/31 01:03:05;;;;;;;6.83;6.60;;;;;;;9.47;82.69;101503.31;5013691;28;20429;-44
2022/05/31 01:05:34;;;;;;;7.13;6.63;;;;;;;9.40;82.57;101507.69;5013458;28;20433;-45
2022/05/31 01:08:02;;;;;;;6.60;6.40;;;;;;;9.34;82.94;101511.00;5012829;28;20465;-44
2022/05/31 01:10:31;;;;;;;7.43;7.00;;;;;;;9.28;82.97;101504.53;5013188;28;20425;-45
2022/05/31 01:13:00;;;;;;;8.00;7.23;;;;;;;9.23;83.00;101501.53;5013400;28;20433;-50
2022/05/31 01:15:28;;;;;;;6.70;6.30;;;;;;;9.18;83.27;101508.38;5013246;28;20433;-43
2022/05/31 01:17:55;;;;;;;7.00;6.70;;;;;;;9.12;83.31;101503.72;5012745;28;20464;-46
2022/05/31 01:20:24;;;;;;;7.87;7.37;;;;;;;9.08;83.51;101499.75;5012305;28;20477;-45
2022/05/31 01:22:54;;;;;;;9.53;7.80;;;;;;;9.06;83.93;101501.72;5012834;28;20455;-48
2022/05/31 01:25:32;;;;;;;8.17;7.13;;;;;;;9.01;84.05;101501.41;5012985;28;20437;-43
2022/05/31 01:28:09;;;;;;;8.07;7.50;;;;;;;8.97;84.25;101502.75;5012736;28;20468;-45
2022/05/31 01:30:43;;;;;;;7.83;7.53;;;;;;;8.93;84.46;101507.56;5012898;28;20447;-44
2022/05/31 01:33:17;;;;;;;8.77;8.00;;;;;;;8.89;84.59;101506.25;5012773;28;20433;-45
2022/05/31 01:35:46;;;;;;;7.57;7.27;;;;;;;8.85;84.94;101504.91;4992727;28;20454;-44
2022/05/31 01:38:18;;;;;;;8.57;8.07;;;;;;;8.82;85.07;101513.22;4993233;28;20438;-44
2022/05/31 01:40:49;;;;;;;7.83;7.53;;;;;;;8.77;84.95;101504.91;4993231;28;20478;-44
2022/05/31 01:43:17;;;;;;;8.17;7.50;;;;;;;8.74;85.08;101510.56;4993137;28;20430;-46
2022/05/31 01:45:52;;;;;;;8.03;7.43;;;;;;;8.71;85.48;101505.59;4992934;28;20462;-45
2022/05/31 01:48:20;;;;;;;8.03;7.53;;;;;;;8.70;85.59;101517.19;4993299;28;20430;-45
2022/05/31 01:50:49;;;;;;;8.23;7.80;;;;;;;8.68;85.68;101512.06;4993142;28;20430;-45
2022/05/31 01:53:18;;;;;;;7.93;7.53;;;;;;;8.68;86.08;101508.56;4992947;28;20438;-43
2022/05/31 01:55:48;;;;;;;7.23;6.93;;;;;;;8.65;85.80;101514.22;4992348;28;20450;-45
2022/05/31 01:58:20;;;;;;;8.37;7.57;;;;;;;8.63;85.98;101510.91;4992917;28;20434;-43
2022/05/31 02:00:48;;;;;;;8.37;7.60;;;;;;;8.60;86.16;101506.72;4992789;28;20474;-44
2022/05/31 02:03:18;;;;;;;7.40;7.07;;;;;;;8.58;86.06;101507.88;4993015;28;20434;-43
2022/05/31 02:05:47;;;;;;;7.80;7.40;;;;;;;8.54;86.29;101509.22;4992263;28;20990;-43
2022/05/31 02:08:18;;;;;;;8.00;7.40;;;;;;;8.49;86.20;101509.72;4992637;28;20438;-49
2022/05/31 02:10:46;;;;;;;8.30;7.80;;;;;;;8.45;85.94;101510.22;4992506;28;20430;-43
2022/05/31 02:13:16;;;;;;;7.83;7.43;;;;;;;8.39;86.04;101506.41;4993017;28;20499;-46
2022/05/31 02:15:43;;;;;;;8.40;7.87;;;;;;;8.35;86.29;101505.03;4992291;28;20458;-45
2022/05/31 02:18:12;;;;;;;9.07;8.27;;;;;;;8.30;86.73;101507.38;4992572;28;20434;-47
2022/05/31 02:20:40;;;;;;;6.57;6.17;;;;;;;8.26;86.73;101509.50;4992375;28;20508;-46
2022/05/31 02:23:08;;;;;;;7.77;7.37;;;;;;;8.22;87.00;101508.13;4992547;28;20440;-44
2022/05/31 02:25:37;;;;;;;9.80;8.93;;;;;;;8.17;87.20;101507.81;4992234;28;20441;-48
2022/05/31 02:28:05;;;;;;;9.20;8.50;;;;;;;8.12;87.22;101510.09;4991988;28;20466;-47
2022/05/31 02:30:32;;;;;;;7.23;6.93;;;;;;;8.08;87.99;101514.09;4992353;28;20489;-43
2022/05/31 02:33:00;;;;;;;8.07;7.60;;;;;;;8.05;87.90;101516.22;5009388;28;20938;-45
2022/05/31 02:35:29;;;;;;;8.10;7.60;;;;;;;8.01;88.53;101510.41;5011939;28;20803;-45
2022/05/31 02:37:58;;;;;;;8.37;7.90;;;;;;;7.97;88.16;101510.91;5011405;28;20464;-43
2022/05/31 02:40:27;;;;;;;8.60;8.00;;;;;;;7.95;88.80;101518.16;5011865;28;20563;-45
2022/05/31 02:42:56;;;;;;;8.90;8.20;;;;;;;7.91;88.70;101515.03;5011930;28;20444;-43
2022/05/31 02:45:23;;;;;;;7.77;7.47;;;;;;;7.88;88.86;101523.31;5011999;28;20964;-48
2022/05/31 02:47:51;;;;;;;9.40;8.70;;;;;;;7.86;89.53;101519.13;5011393;28;20990;-46
2022/05/31 02:50:19;;;;;;;9.27;8.50;;;;;;;7.82;89.33;101516.00;5011635;28;20436;-45
2022/05/31 02:52:47;;;;;;;8.83;8.13;;;;;;;7.79;89.16;101522.44;5011779;28;20441;-43
2022/05/31 02:55:14;;;;;;;9.40;8.87;;;;;;;7.77;89.50;101515.63;5011900;28;20800;-46
2022/05/31 02:57:42;;;;;;;8.63;8.03;;;;;;;7.77;89.76;101520.94;5011248;28;20465;-45
2022/05/31 03:00:14;;;;;;;9.33;8.73;;;;;;;7.77;90.13;101519.09;5011745;28;20437;-47
2022/05/31 03:02:42;;;;;;;8.77;8.17;;;;;;;7.78;90.12;101520.78;5011708;28;20961;-44
2022/05/31 03:05:13;;;;;;;8.20;7.70;;;;;;;7.78;89.89;101515.47;5011710;28;20483;-43
2022/05/31 03:07:40;;;;;;;7.80;7.30;;;;;;;7.83;90.58;101514.97;5011098;28;20465;-46
2022/05/31 03:10:08;;;;;;;9.33;8.43;;;;;;;7.85;90.55;101515.66;5011138;28;20439;-43
2022/05/31 03:12:37;;;;;;;10.03;8.17;;;;;;;7.90;90.59;101523.97;5011556;28;20425;-50
2022/05/31 03:15:08;;;;;;;9.00;8.40;;;;;;;7.93;90.62;101518.34;5011839;28;20433;-45
2022/05/31 03:17:39;;;;;;;8.30;7.80;;;;;;;7.98;90.64;101513.38;5011023;28;20468;-46
2022/05/31 03:20:12;;;;;;;10.60;8.80;;;;;;;8.02;90.37;101522.69;5011780;28;20435;-49
2022/05/31 03:22:45;;;;;;;8.40;7.80;;;;;;;8.06;90.67;101513.44;5011630;28;20480;-43
2022/05/31 03:25:17;;;;;;;8.57;7.97;;;;;;;8.22;91.19;101504.66;5011670;28;20429;-43
2022/05/31 03:27:47;;;;;;;7.80;7.40;;;;;;;8.34;90.75;101506.88;5011003;28;20469;-43
2022/05/31 03:30:15;;;;;;;7.73;7.33;;;;;;;8.42;90.52;101499.91;5011163;28;20432;-51
2022/05/31 03:32:45;;;;;;;8.43;7.83;;;;;;;8.50;90.48;101503.41;5003112;28;20439;-48
2022/05/31 03:35:13;;;;;;;8.30;7.90;;;;;;;8.58;90.34;101503.41;5011409;28;20799;-48
2022/05/31 03:37:41;;;;;;;8.10;7.60;;;;;;;8.66;89.91;101508.72;5010861;28;20469;-46
2022/05/31 03:40:11;;;;;;;8.77;8.23;;;;;;;8.72;89.62;101496.63;5011888;28;20528;-48
2022/05/31 03:42:39;;;;;;;7.90;7.30;;;;;;;8.82;89.53;101508.75;5011155;28;20477;-45
2022/05/31 03:45:08;;;;;;;8.63;8.03;;;;;;;8.92;89.06;101507.75;5013933;28;20435;-43
2022/05/31 03:47:35;;;;;;;8.33;7.73;;;;;;;9.00;88.96;101503.25;5014262;28;20469;-51
2022/05/31 03:50:05;;;;;;;8.37;7.97;;;;;;;9.09;88.85;101514.69;5015054;28;20439;-48
2022/05/31 03:52:32;;;;;;;7.97;7.63;;;;;;;9.19;88.28;101515.38;5014665;28;20528;-45
2022/05/31 03:55:00;;;;;;;8.80;8.30;;;;;;;9.30;88.29;101513.19;5014625;28;20435;-48
2022/05/31 03:57:28;;;;;;;8.50;8.00;;;;;;;9.38;87.68;101518.47;5014180;28;20472;-47
2022/05/31 03:59:55;;;;;;;7.70;7.30;;;;;;;9.50;87.80;101518.94;5014756;28;20433;-44
2022/05/31 04:02:23;;;;;;;8.20;7.80;;;;;;;9.63;87.60;101515.75;5014244;28;20985;-43
2022/05/31 04:04:50;;;;;;;8.40;8.00;;;;;;;9.71;86.79;101510.38;5014617;28;20444;-45
2022/05/31 04:07:19;;;;;;;7.90;7.50;;;;;;;9.87;87.09;101513.00;5014094;28;20473;-50
2022/05/31 04:09:47;;;;;;;7.73;7.33;;;;;;;9.99;86.74;101514.28;5014315;28;20439;-44
2022/05/31 04:12:14;;;;;;;8.00;7.50;;;;;;;10.07;86.33;101514.22;5014297;28;20439;-44
2022/05/31 04:14:42;;;;;;;9.70;9.00;;;;;;;10.16;85.72;101510.53;5014350;28;20926;-43
2022/05/31 04:17:09;;;;;;;8.23;7.90;;;;;;;10.31;86.07;101511.47;5013728;28;20473;-44
2022/05/31 04:19:37;;;;;;;8.00;7.60;;;;;;;10.57;86.59;101519.13;5014325;28;20433;-43
2022/05/31 04:22:04;;;;;;;8.80;8.30;;;;;;;10.92;86.66;101513.19;5013819;28;20477;-43
2022/05/31 04:24:34;;;;;;;8.30;7.80;;;;;;;11.55;88.56;101510.06;5014145;28;20922;-46
2022/05/31 04:27:01;;;;;;;6.97;6.37;;;;;;;12.92;90.17;101509.16;5013706;28;20473;-43
2022/05/31 04:29:29;;;;;;;6.27;5.67;;;;;;;14.17;81.99;101505.38;5014157;28;20440;-48
2022/05/31 04:31:56;;;;;;;4.87;4.57;;;;;;;15.63;80.90;101508.78;5013679;28;20445;-43
2022/05/31 04:34:24;;;;;;;5.80;5.50;;;;;;;16.97;77.12;101499.59;5013972;28;20521;-43
2022/05/31 04:36:51;;;;;;;7.07;6.67;;;;;;;17.84;70.01;101508.50;5013206;28;20477;-45
2022/05/31 04:39:19;;;;;;;5.97;5.67;;;;;;;18.14;65.20;101495.88;5014025;28;20437;-45
2022/05/31 04:41:48;;;;;;;6.40;6.03;;;;;;;17.94;62.26;101496.13;5013758;28;20476;-48
2022/05/31 04:44:16;;;;;;;6.30;5.80;;;;;;;18.34;61.30;101501.00;5013838;28;20443;-47
2022/05/31 04:46:44;;;;;;;7.10;6.60;;;;;;;18.71;59.09;101510.66;5013216;28;20473;-43
2022/05/31 04:49:12;;;;;;;7.93;7.43;;;;;;;18.94;57.06;101512.56;5013668;28;20805;-46
2022/05/31 04:51:40;;;;;;;7.10;6.47;;;;;;;19.18;56.51;101508.84;5013589;28;20455;-43
2022/05/31 04:54:08;;;;;;;6.37;5.97;;;;;;;19.69;54.87;101506.25;5013664;28;20791;-46
2022/05/31 04:56:36;;;;;;;6.40;6.00;;;;;;;20.36;52.76;101509.25;5012834;28;20990;-45
2022/05/31 04:59:05;;;;;;;6.70;6.40;;;;;;;21.24;52.21;101509.44;5013536;28;20910;-50
2022/05/31 05:01:35;;;;;;;6.03;5.63;;;;;;;21.92;51.06;101509.03;5013203;28;20439;-46
2022/05/31 05:04:03;;;;;;;6.30;5.90;;;;;;;22.57;49.57;101506.25;5013371;28;20506;-49
2022/05/31 05:06:32;;;;;;;6.53;5.93;;;;;;;23.17;46.81;101507.03;5012976;28;20556;-48
2022/05/31 05:08:59;;;;;;;6.63;6.33;;;;;;;23.81;46.16;101507.69;5013275;28;20437;-44
2022/05/31 05:11:27;;;;;;;5.97;5.67;;;;;;;24.28;45.14;101507.63;5013177;28;20448;-51
2022/05/31 05:13:56;;;;;;;4.90;4.70;;;;;;;24.11;43.94;101500.50;5013286;28;20481;-47
2022/05/31 05:16:25;;;;;;;5.33;5.13;;;;;;;24.02;43.09;101503.97;5012636;28;20468;-46
2022/05/31 05:18:55;;;;;;;6.10;5.70;;;;;;;23.92;43.63;101509.41;5013426;28;20515;-49
2022/05/31 05:21:24;;;;;;;4.97;4.77;;;;;;;24.04;40.49;101508.06;5013112;28;20534;-46
2022/05/31 05:23:51;;;;;;;4.97;4.70;;;;;;;24.19;42.99;101508.13;5012892;28;21036;-46
2022/05/31 05:26:19;;;;;;;5.27;4.87;;;;;;;24.71;42.12;101510.69;5012515;28;20471;-47
2022/05/31 05:31:35;;;;;;;4.90;4.70;;;;;;;25.94;40.62;101504.78;5012534;28;20456;-46
2022/05/31 05:34:04;;;;;;;5.50;5.00;;;;;;;26.43;39.68;101506.75;5013062;28;20455;-46
2022/05/31 05:36:32;;;;;;;5.30;5.10;;;;;;;26.62;35.69;101494.00;5012362;28;20468;-45
2022/05/31 05:38:59;;;;;;;4.50;4.30;;;;;;;26.71;36.59;101497.78;5012845;28;20439;-45
2022/05/31 05:41:29;;;;;;;4.87;4.57;;;;;;;26.58;35.52;101496.50;5012394;28;20444;-49
2022/05/31 05:43:57;;;;;;;4.63;4.43;;;;;;;26.72;37.90;101499.41;5012839;28;20486;-45
2022/05/31 05:46:27;;;;;;;4.47;4.23;;;;;;;27.20;36.34;101497.66;5012135;28;20846;-45
2022/05/31 05:48:57;;;;;;;4.20;4.00;;;;;;;27.37;35.20;101498.03;5013040;28;20441;-45
2022/05/31 05:51:29;;;;;;;3.80;3.57;;;;;;;27.57;34.79;101492.34;5012423;28;20464;-46
2022/05/31 05:53:57;;;;;;;3.60;3.40;;;;;;;27.21;35.28;101485.59;5012550;28;20686;-46
2022/05/31 05:56:26;;;;;;;5.20;3.83;;;;;;;27.23;35.23;101488.88;5012278;28;20487;-48
2022/05/31 05:58:54;;;;;;;3.57;3.37;;;;;;;27.33;32.42;101486.81;5012630;28;20524;-47
2022/05/31 06:01:27;;;;;;;3.73;3.50;;;;;;;27.46;33.87;101496.31;5012467;28;20515;-45
2022/05/31 06:04:22;;;;;;;3.70;3.50;;;;;;;27.69;30.96;101492.75;5012234;28;20731;-48
2022/05/31 06:06:59;;;;;;;3.63;3.43;;;;;;;27.62;32.68;101495.03;5011647;28;20229;-46
2022/05/31 06:09:27;;;;;;;3.70;3.50;;;;;;;27.85;33.24;101505.16;5012497;28;20192;-43
2022/05/31 06:12:03;;;;;;;3.97;3.70;;;;;;;27.77;28.66;101502.25;5012152;28;20206;-46
2022/05/31 06:14:36;;;;;;;4.20;3.60;;;;;;;27.91;31.71;101504.00;5012265;28;20201;-46
2022/05/31 06:17:10;;;;;;;3.30;3.00;;;;;;;27.74;30.82;101502.84;5011851;28;20226;-46
2022/05/31 06:19:47;;;;;;;4.00;3.60;;;;;;;27.44;30.15;101504.00;5012286;28;20288;-50
2022/05/31 06:22:15;;;;;;;3.53;3.23;;;;;;;27.64;32.49;101505.69;5011922;28;20201;-43
2022/05/31 06:24:43;;;;;;;3.30;3.00;;;;;;;27.26;33.01;101501.97;5012172;28;20205;-44
2022/05/31 06:27:11;;;;;;;2.73;2.63;;;;;;;27.67;30.54;101503.19;5011528;28;20233;-45
2022/05/31 06:29:38;;;;;;;5.70;3.00;;;;;;;27.83;31.48;101501.91;5012307;28;20537;-48
2022/05/31 06:32:07;;;;;;;2.83;2.47;;;;;;;27.97;29.78;101508.31;5012089;28;20572;-45
2022/05/31 06:34:37;;;;;;;2.97;2.60;;;;;;;27.02;30.54;101499.19;5012105;28;20190;-45
2022/05/31 06:37:08;;;;;;;2.70;2.60;;;;;;;25.59;31.10;101500.28;5011717;28;20303;-50
2022/05/31 06:39:36;;;;;;;5.17;3.10;;;;;;;24.21;32.87;101508.72;5012231;28;20231;-49
2022/05/31 06:42:05;;;;;;;2.80;2.60;;;;;;;22.58;35.73;101513.31;5011992;28;20544;-46
2022/05/31 06:44:33;;;;;;;3.10;2.90;;;;;;;21.63;37.43;101514.88;5011964;28;20468;-45
2022/05/31 06:47:02;;;;;;;3.43;3.23;;;;;;;22.31;37.26;101517.13;5011557;28;20468;-47
2022/05/31 06:49:31;;;;;;;3.40;3.10;;;;;;;23.25;35.57;101510.09;5012029;28;20429;-46
2022/05/31 06:57:31;;;;;;;3.20;2.90;;;;;;;23.26;35.51;101513.63;5011295;28;21013;-45
2022/05/31 06:59:59;;;;;;;2.73;2.53;;;;;;;23.47;35.14;101518.97;5012064;28;20436;-48
2022/05/31 07:02:27;;;;;;;3.27;2.97;;;;;;;22.52;37.13;101518.94;5011488;28;20441;-50
2022/05/31 07:04:55;;;;;;;3.00;2.80;;;;;;;21.74;37.39;101512.06;5011672;28;20459;-52
2022/05/31 07:07:22;;;;;;;2.60;2.50;;;;;;;22.59;36.06;101504.06;5011274;28;20471;-50
2022/05/31 07:09:51;;;;;;;3.77;3.57;;;;;;;23.43;36.64;101509.69;5011888;28;20455;-49
2022/05/31 07:12:20;;;;;;;2.40;2.30;;;;;;;23.36;34.52;101511.78;5011575;28;20453;-49
2022/05/31 07:14:47;;;;;;;3.20;2.90;;;;;;;23.53;33.46;101503.50;5011757;28;20428;-47
2022/05/31 07:17:15;;;;;;;2.80;2.60;;;;;;;23.54;34.30;101505.94;5011001;28;20981;-49
2022/05/31 07:19:43;;;;;;;2.70;2.57;;;;;;;23.94;35.50;101504.50;5013446;28;20443;-48
2022/05/31 07:22:31;;;;;;;3.53;3.23;;;;;;;24.50;33.13;101500.03;5015468;28;20444;-44
2022/05/31 07:25:00;;;;;;;3.00;2.80;;;;;;;24.02;32.29;101499.34;5015285;28;20472;-47
2022/05/31 07:27:28;;;;;;;3.10;2.90;;;;;;;24.32;32.31;101493.19;5014636;28;20468;-47
2022/05/31 07:29:55;;;;;;;3.30;3.10;;;;;;;24.93;34.15;101491.38;5015343;28;20432;-48
2022/05/31 07:32:23;;;;;;;3.13;3.03;;;;;;;24.58;32.44;101492.13;5014683;28;20443;-48
2022/05/31 07:35:11;;;;;;;2.40;2.30;;;;;;;23.89;31.91;101491.69;5014946;28;20447;-48
2022/05/31 07:37:38;;;;;;;3.00;2.80;;;;;;;23.49;33.79;101494.19;5014585;28;20502;-50
2022/05/31 07:40:09;;;;;;;3.03;2.80;;;;;;;23.39;33.65;101485.97;5014868;28;20432;-47
2022/05/31 07:42:36;;;;;;;3.70;3.13;;;;;;;22.53;34.79;101496.13;5015123;28;20795;-46
2022/05/31 07:45:05;;;;;;;2.97;2.77;;;;;;;22.81;34.86;101489.63;5014982;28;20476;-49
2022/05/31 07:47:32;;;;;;;2.83;2.73;;;;;;;22.42;34.37;101494.41;5014259;28;20468;-45
2022/05/31 07:50:00;;;;;;;2.77;2.60;;;;;;;22.59;35.27;101486.94;5014738;28;20938;-44
2022/05/31 07:52:28;;;;;;;2.70;2.60;;;;;;;21.72;34.88;101497.06;5014574;28;20436;-46
2022/05/31 07:54:55;;;;;;;3.23;3.03;;;;;;;21.40;36.31;101495.03;5014763;28;20436;-44
2022/05/31 08:00:10;;;;;;;2.83;2.63;;;;;;;20.72;37.42;101489.88;5014671;28;20433;-46
2022/05/31 08:02:37;;;;;;;3.20;3.00;;;;;;;21.27;36.01;101489.94;5014608;28;20443;-46
2022/05/31 08:05:06;;;;;;;2.50;2.40;;;;;;;21.04;35.88;101487.41;5014207;28;20476;-45
2022/05/31 08:07:33;;;;;;;2.40;2.30;;;;;;;20.81;37.68;101488.41;5013945;28;20828;-46
2022/05/31 08:10:01;;;;;;;2.80;2.70;;;;;;;20.11;37.12;101489.78;5014403;28;20926;-43
2022/05/31 08:12:30;;;;;;;2.90;2.70;;;;;;;20.04;39.30;101484.50;5014150;28;20524;-46
2022/05/31 08:14:57;;;;;;;2.70;2.50;;;;;;;19.94;38.34;101483.47;5014335;28;20439;-44
2022/05/31 08:17:25;;;;;;;2.70;2.60;;;;;;;19.95;38.57;101488.66;5013815;28;20475;-44
2022/05/31 08:19:54;;;;;;;2.40;2.30;;;;;;;19.80;38.45;101482.94;5014148;28;20437;-43
2022/05/31 08:22:22;;;;;;;3.53;2.90;;;;;;;19.49;38.65;101497.69;5014259;28;20440;-44
2022/05/31 08:24:50;;;;;;;2.57;2.20;;;;;;;19.44;39.51;101497.59;5014158;28;20826;-47
2022/05/31 08:27:18;;;;;;;3.77;2.40;;;;;;;19.52;38.87;101483.69;5013778;28;20464;-45
2022/05/31 08:29:47;;;;;;;2.80;2.60;;;;;;;19.68;39.48;101491.06;5013643;28;20432;-47
2022/05/31 08:32:14;;;;;;;3.00;2.43;;;;;;;20.23;38.98;101483.25;5014005;28;20436;-43
2022/05/31 08:34:42;;;;;;;2.43;2.30;;;;;;;21.15;37.84;101486.50;5014161;28;20431;-45
2022/05/31 08:37:10;;;;;;;2.63;2.53;;;;;;;21.68;36.30;101482.38;5013587;28;20465;-47
2022/05/31 08:39:37;;;;;;;2.70;2.50;;;;;;;22.31;35.10;101477.16;5013936;28;20439;-44
2022/05/31 08:42:07;;;;;;;2.60;2.40;;;;;;;22.23;33.44;101472.19;5013609;28;20934;-47
2022/05/31 08:44:43;;;;;;;2.97;2.87;;;;;;;22.22;31.58;101480.59;5013599;28;20482;-44
2022/05/31 08:47:21;;;;;;;2.67;2.47;;;;;;;21.95;32.78;101478.66;5013313;28;20468;-46
2022/05/31 08:52:57;;;;;;;2.60;2.50;;;;;;;21.12;34.06;101480.75;5013649;28;20436;-43
2022/05/31 08:58:20;;;;;;;4.90;2.50;;;;;;;20.93;36.66;101470.16;4988273;28;20445;-43
2022/05/31 09:00:50;;;;;;;2.57;2.37;;;;;;;20.65;37.35;101474.81;5013372;28;20440;-49
2022/05/31 09:03:25;;;;;;;2.53;2.43;;;;;;;19.87;36.45;101472.78;5013404;28;20431;-47
2022/05/31 09:05:59;;;;;;;2.93;2.50;;;;;;;19.16;37.71;101473.94;5013013;28;20475;-43
2022/05/31 09:08:33;;;;;;;2.70;2.60;;;;;;;19.35;40.63;101470.03;5013463;28;20433;-46
2022/05/31 09:11:04;;;;;;;3.33;3.13;;;;;;;19.95;38.28;101469.69;5013054;28;20433;-45
2022/05/31 09:13:38;;;;;;;3.00;2.80;;;;;;;20.26;37.61;101471.97;5013325;28;20433;-48
2022/05/31 09:16:11;;;;;;;3.50;3.30;;;;;;;20.12;39.37;101473.31;5012749;28;20464;-47
2022/05/31 09:18:45;;;;;;;3.40;2.30;;;;;;;19.75;38.35;101477.41;5013366;28;20432;-45
2022/05/31 09:21:22;;;;;;;2.77;2.50;;;;;;;18.88;40.72;101471.09;5012990;28;20448;-44
2022/05/31 09:23:50;;;;;;;2.63;2.43;;;;;;;19.21;40.39;101473.22;5013039;28;20459;-46
2022/05/31 09:26:37;;;;;;;2.73;2.63;;;;;;;19.09;40.32;101473.22;5012524;28;20572;-47
2022/05/31 09:29:15;;;;;;;2.43;2.33;;;;;;;19.68;40.85;101469.41;5013316;28;20794;-45
2022/05/31 09:31:53;;;;;;;2.97;2.77;;;;;;;19.89;39.63;101465.28;5012635;28;20436;-45
2022/05/31 09:34:45;;;;;;;2.40;2.30;;;;;;;19.91;37.87;101460.44;5012769;28;20424;-46
2022/05/31 09:37:24;;;;;;;2.93;2.40;;;;;;;19.97;37.40;101458.63;5012289;28;20465;-44
2022/05/31 09:40:08;;;;;;;2.80;2.60;;;;;;;19.89;38.25;101452.53;5012911;28;20436;-47
2022/05/31 09:42:40;;;;;;;3.10;2.43;;;;;;;20.21;36.62;101455.59;5011969;28;20440;-46
2022/05/31 09:45:11;;;;;;;2.40;2.30;;;;;;;20.82;35.72;101448.53;5012576;28;20476;-45
2022/05/31 09:47:39;;;;;;;6.00;5.57;;;;;;;21.55;35.36;101450.16;5011985;28;20479;-49
2022/05/31 09:50:08;;;;;;;4.33;2.80;;;;;;;22.07;32.82;101445.13;5012691;28;20421;-45
2022/05/31 09:52:42;;;;;;;3.10;2.90;;;;;;;21.80;33.78;101445.06;5012457;28;20440;-45
2022/05/31 09:58:03;;;;;;;2.20;2.10;;;;;;;21.85;37.06;101445.13;5012057;28;20465;-45
2022/05/31 10:00:31;;;;;;;2.90;2.70;;;;;;;21.27;36.67;101448.44;5012199;28;20937;-46
2022/05/31 10:03:05;;;;;;;2.50;2.40;;;;;;;21.12;37.77;101448.22;5012377;28;20433;-46
2022/05/31 10:05:34;;;;;;;2.57;2.43;;;;;;;20.58;36.26;101447.88;5012318;28;20476;-44
2022/05/31 10:08:02;;;;;;;2.60;2.50;;;;;;;20.78;36.57;101441.97;5011747;28;20875;-44
2022/05/31 10:10:34;;;;;;;4.03;2.43;;;;;;;20.03;37.61;101450.38;5012355;28;20790;-45
2022/05/31 10:13:08;;;;;;;2.37;2.27;;;;;;;20.14;37.03;101440.56;5012488;28;20451;-44
2022/05/31 10:15:49;;;;;;;2.83;2.60;;;;;;;20.02;38.01;101446.03;5012246;28;20435;-44
2022/05/31 10:18:28;;;;;;;2.73;2.60;;;;;;;19.62;38.43;101446.03;5012054;28;20444;-46
2022/05/31 10:20:59;;;;;;;2.60;2.40;;;;;;;19.72;38.11;101443.53;5011965;28;20827;-45
2022/05/31 10:23:35;;;;;;;2.60;2.50;;;;;;;19.58;36.98;101441.34;5012117;28;20934;-49
2022/05/31 10:26:03;;;;;;;2.43;2.33;;;;;;;19.64;38.04;101440.38;5011689;28;20452;-47
2022/05/31 10:28:36;;;;;;;2.20;2.10;;;;;;;19.34;39.07;101441.34;5012058;28;20433;-47
2022/05/31 10:31:14;;;;;;;2.60;2.50;;;;;;;18.98;40.44;101452.41;5011559;28;20421;-45
2022/05/31 10:33:51;;;;;;;2.60;2.40;;;;;;;19.34;39.86;101440.53;5012164;28;20650;-45
2022/05/31 10:36:23;;;;;;;2.67;2.47;;;;;;;19.68;38.31;101442.34;5011417;28;20464;-46
2022/05/31 10:38:52;;;;;;;2.70;2.50;;;;;;;19.62;38.41;101437.91;5012061;28;20797;-44
2022/05/31 10:41:25;;;;;;;3.07;2.93;;;;;;;19.75;37.10;101436.81;5011583;28;20962;-47
2022/05/31 10:44:20;;;;;;;2.70;2.50;;;;;;;19.98;37.34;101435.94;5012117;28;20428;-44
2022/05/31 10:46:52;;;;;;;2.53;2.40;;;;;;;20.20;37.22;101432.28;5011240;28;20476;-47
2022/05/31 10:49:22;;;;;;;2.53;2.17;;;;;;;20.87;36.86;101435.06;5011941;28;20923;-43
2022/05/31 10:51:59;;;;;;;3.03;2.47;;;;;;;21.21;34.35;101433.97;5011585;28;20455;-45
2022/05/31 10:54:44;;;;;;;4.23;2.60;;;;;;;20.54;34.20;101429.66;5015095;28;20428;-49
2022/05/31 10:57:21;;;;;;;2.70;2.60;;;;;;;20.74;35.70;101421.84;5015403;28;20483;-45
2022/05/31 10:59:54;;;;;;;2.90;2.80;;;;;;;20.43;36.51;101423.22;5015820;28;20428;-43
2022/05/31 11:02:38;;;;;;;2.37;2.27;;;;;;;20.28;37.45;101426.50;5015543;28;20440;-48
2022/05/31 11:05:09;;;;;;;2.60;2.40;;;;;;;19.76;37.65;101425.75;5015786;28;20467;-45
2022/05/31 11:11:28;;;;;;;2.40;2.30;;;;;;;19.78;38.14;101420.09;5015444;28;20813;-50
2022/05/31 11:13:41;;;;;;;2.20;2.10;;;;;;;19.91;38.47;101424.41;5015493;28;20807;-46
2022/05/31 11:16:17;;;;;;;2.50;2.27;;;;;;;19.82;37.33;101421.28;5014897;28;20456;-48
2022/05/31 11:19:05;;;;;;;3.03;2.80;;;;;;;19.95;37.88;101412.84;5015346;28;20435;-46
2022/05/31 11:21:48;;;;;;;2.40;2.20;;;;;;;20.87;36.03;101413.38;5015318;28;20478;-46
2022/05/31 11:24:32;;;;;;;2.67;2.57;;;;;;;21.41;35.00;101406.31;5015409;28;20437;-44
2022/05/31 11:27:13;;;;;;;3.70;3.23;;;;;;;21.81;33.39;101403.25;5014681;28;20491;-46
2022/05/31 11:30:11;;;;;;;2.37;2.27;;;;;;;21.79;31.99;101408.13;5015421;28;20435;-45
2022/05/31 11:32:57;;;;;;;2.43;2.33;;;;;;;21.67;33.65;101410.97;5014298;28;20447;-47
2022/05/31 11:35:39;;;;;;;3.20;3.00;;;;;;;21.74;34.28;101405.34;5015033;28;20424;-46
2022/05/31 11:38:12;;;;;;;2.27;2.17;;;;;;;21.80;34.34;101407.06;5014560;28;20475;-46
2022/05/31 11:40:51;;;;;;;2.70;2.60;;;;;;;21.87;34.25;101404.94;5014967;28;20433;-46
2022/05/31 11:43:47;;;;;;;2.43;2.33;;;;;;;21.49;35.37;101403.97;5014846;28;20420;-47
2022/05/31 11:46:23;;;;;;;2.63;2.53;;;;;;;21.64;35.06;101399.81;5014459;28;20478;-46
2022/05/31 11:48:59;;;;;;;2.40;2.30;;;;;;;21.82;33.11;101410.31;5014975;28;20471;-45
2022/05/31 11:51:54;;;;;;;2.20;2.10;;;;;;;21.32;34.92;101399.69;5014735;28;20444;-46
2022/05/31 11:55:25;;;;;;;2.50;2.37;;;;;;;20.59;35.34;101405.34;5014670;28;20439;-48
2022/05/31 11:57:56;;;;;;;2.03;1.93;;;;;;;19.66;36.47;101406.59;5014160;28;20468;-46
2022/05/31 12:00:27;;;;;;;2.10;2.00;;;;;;;19.85;36.70;101399.97;5014384;28;20439;-45
2022/05/31 12:03:03;;;;;;;2.37;2.10;;;;;;;20.00;36.07;101409.44;5014937;28;20885;-47
2022/05/31 12:05:35;;;;;;;2.47;2.37;;;;;;;19.64;36.90;101411.44;5013749;28;20822;-45
2022/05/31 12:08:08;;;;;;;2.17;2.00;;;;;;;19.47;37.79;101398.91;5014025;28;20829;-48
2022/05/31 12:10:41;;;;;;;2.27;2.17;;;;;;;19.24;37.97;101405.97;5014286;28;20429;-44